Ashland, KY (41101)

4:02 AM EDT on September 20, 2014 (GMT -0400)
SouthAshland | Change Station
CLOSE
Current Station
Personal Weather Station
Location: Ashland, KY
Elevation: 700 ft
Nearby Weather Stations

Elev 700 ft 38.45 °N, 82.63 °W | Updated 3 minutes ago

Clear
Clear
61.0 °F
Feels Like 61.0 °F
N
0.0
Wind Variable Wind from SSW
Gusts 0.0 mph

Today
High -- | Low -- °F
--% Chance of Precip.
Yesterday
High -- | Low -- °F
Precip. -- in
7:16 AM 7:30 PM
Waning Crescent, 14% visible
Pressure 30.10 in
Visibility 10.0 miles
Clouds Few 6500 ft
Dew Point 60 °F
Humidity 97%
Rainfall 0.00 in
Snow Depth Not available.
UV 0 out of 12
Pollen 5.00 out of 12
Air Quality Not available.
Flu Activity Not available.
METAR KHTS 200751Z 15003KT 10SM FEW065 17/14 A3011 RMK AO2 SLP191 T01720144

More Conditions Fewer Conditions

Pressure 30.10 in
Visibility 10.0 miles
Clouds Few 6500 ft
Dew Point 60 °F
Humidity 97%
Rainfall 0.00 in
Snow Depth Not available.
UV 0 out of 12
Pollen 5.00 out of 12
Air Quality Not available.
Flu Activity Not available.
METAR KHTS 200751Z 15003KT 10SM FEW065 17/14 A3011 RMK AO2 SLP191 T01720144

More Conditions Fewer Conditions

10-Day Weather Forecast

Almanac

Astronomy

Sep. 20, 2014 Rise Set
Actual Time 7:16 AM EDT 7:30 PM EDT
Civil Twilight 6:50 AM EDT 7:57 PM EDT
Nautical Twilight 6:19 AM EDT 8:28 PM EDT
Astronomical Twilight 5:47 AM EDT 8:59 PM EDT
Moon 3:56 AM EDT 5:31 PM EDT
Length of Visible Light 13h 07m
Length of Day
12h 14m
Tomorrow will be 2m 28s shorter.
Waning Crescent, 14% of the Moon is Illuminated
Today
Waning Crescent
Sep 24
New
Oct 1
First Quarter
Oct 8
Full
Oct 15
Last Quarter

Today's Extremes

State Highs State Lows

Community

WunderPhotos

Upload Photos

1,754,793 photos uploaded!

WunderBlogs® & News

Nearby

Snow Depth

Station Depth Elevation
No new snow has been reported.

Earthquake Activity

City Distance Mag. Time & Date
No recent earthquake activity has been reported nearby.
Minimum magnitude displayed is 2.5.

Coastal Water Temperatures

Place Temperature
No Stations Reporting

Nearby Weather Stations